Time;durP1;ratioP1;P1;durP2;ratioP2;P2;SDS_P1;SDS_P2;PMS_P1;PMS_P2;Temp;Humidity;BMP_temperature;BMP_pressure;BME280_temperature;BME280_humidity;BME280_pressure;Samples;Min_cycle;Max_cycle;Signal;HPM_P1;HPM_P2
2024/02/13 00:00:26;;;;;;;;;;;;;;;21.49;28.41;96847.84;4937728;28;1415;-78
2024/02/13 00:02:52;;;;;;;;;;;;;;;21.66;28.10;96854.00;4927630;29;1182;-78
2024/02/13 00:05:18;;;;;;;;;;;;;;;21.79;27.73;96854.59;4912309;29;954;-78
2024/02/13 00:07:43;;;;;;;;;;;;;;;21.57;28.34;96859.66;4912754;29;1017;-78
2024/02/13 00:10:10;;;;;;;;;;;;;;;21.73;28.29;96862.16;4911469;29;956;-78
2024/02/13 00:12:36;;;;;;;;;;;;;;;21.87;28.01;96866.41;4928895;29;933;-78
2024/02/13 00:15:02;;;;;;;;;;;;;;;21.72;28.41;96860.59;4910753;29;942;-78
2024/02/13 00:17:30;;;;;;;;;;;;;;;21.46;28.64;96865.00;4933985;29;1142;-78
2024/02/13 00:19:56;;;;;;;;;;;;;;;21.58;28.57;96849.91;4964556;29;1969;-77
2024/02/13 00:22:22;;;;;;;;;;;;;;;21.57;28.37;96842.69;4928192;29;1041;-78
2024/02/13 00:24:50;;;;;;;;;;;;;;;21.29;28.79;96839.03;4911058;29;1029;-77
2024/02/13 00:27:17;;;;;;;;;;;;;;;21.17;28.71;96806.81;4912592;29;1030;-78
2024/02/13 00:29:45;;;;;;;;;;;;;;;21.55;28.81;96834.66;4910840;29;1032;-78
2024/02/13 00:32:13;;;;;;;;;;;;;;;21.66;28.63;96816.38;4928245;29;934;-78
2024/02/13 00:34:39;;;;;;;;;;;;;;;21.78;28.29;96819.06;4910611;29;1017;-78
2024/02/13 00:37:05;;;;;;;;;;;;;;;21.51;28.53;96819.09;4911999;29;948;-78
2024/02/13 00:39:31;;;;;;;;;;;;;;;21.57;28.47;96808.72;4921789;28;1974;-78
2024/02/13 00:41:57;;;;;;;;;;;;;;;21.73;28.27;96808.38;4969551;28;985;-78
2024/02/13 00:44:23;;;;;;;;;;;;;;;21.63;28.70;96806.03;4967130;28;985;-78
2024/02/13 00:46:50;;;;;;;;;;;;;;;21.68;28.51;96809.00;4969157;28;1236;-78
2024/02/13 00:49:16;;;;;;;;;;;;;;;21.59;28.67;96817.50;4984248;28;987;-78
2024/02/13 00:51:42;;;;;;;;;;;;;;;21.38;28.94;96809.97;4965323;28;1126;-78
2024/02/13 00:54:13;;;;;;;;;;;;;;;21.29;28.96;96811.50;4964317;28;1021;-78
2024/02/13 00:56:41;;;;;;;;;;;;;;;21.28;29.29;96821.25;4949133;29;934;-78
2024/02/13 00:59:07;;;;;;;;;;;;;;;21.31;29.09;96820.38;4972348;28;1907;-78
2024/02/13 01:01:34;;;;;;;;;;;;;;;21.53;29.17;96808.09;4987905;28;925;-78
2024/02/13 01:04:00;;;;;;;;;;;;;;;21.67;28.78;96810.28;4970934;28;974;-78
2024/02/13 01:06:27;;;;;;;;;;;;;;;21.76;28.95;96815.13;4971844;28;1110;-78
2024/02/13 01:08:53;;;;;;;;;;;;;;;21.32;29.46;96810.59;4963969;29;915;-78
2024/02/13 01:11:18;;;;;;;;;;;;;;;21.40;29.33;96804.63;4918128;29;1008;-78
2024/02/13 01:13:44;;;;;;;;;;;;;;;21.53;28.97;96813.75;4963992;29;954;-78
2024/02/13 01:16:09;;;;;;;;;;;;;;;21.35;29.08;96813.75;4950169;29;975;-78
2024/02/13 01:18:35;;;;;;;;;;;;;;;21.25;29.39;96813.72;4931973;29;1912;-77
2024/02/13 01:21:01;;;;;;;;;;;;;;;21.61;29.06;96809.34;4934301;29;1260;-78
2024/02/13 01:23:27;;;;;;;;;;;;;;;21.78;28.91;96795.63;4947227;29;985;-77
2024/02/13 01:25:52;;;;;;;;;;;;;;;21.89;28.46;96800.78;4966152;29;853;-78
2024/02/13 01:28:19;;;;;;;;;;;;;;;21.54;29.14;96796.28;4965946;28;1471;-78
2024/02/13 01:30:45;;;;;;;;;;;;;;;21.36;29.42;96789.88;4968989;28;945;-78
2024/02/13 01:33:10;;;;;;;;;;;;;;;21.53;29.16;96791.88;4966621;28;1293;-78
2024/02/13 01:35:42;;;;;;;;;;;;;;;21.56;29.10;96790.94;4984910;28;1024;-78
2024/02/13 01:38:09;;;;;;;;;;;;;;;21.63;29.28;96806.03;4982988;28;1950;-78
2024/02/13 01:40:35;;;;;;;;;;;;;;;21.83;28.92;96809.94;4936366;28;1216;-78
2024/02/13 01:43:02;;;;;;;;;;;;;;;21.83;28.76;96804.25;4967040;28;937;-78
2024/02/13 01:45:28;;;;;;;;;;;;;;;21.73;29.16;96805.53;4971676;28;962;-78
2024/02/13 01:47:54;;;;;;;;;;;;;;;21.56;29.29;96801.47;4987565;28;1007;-78
2024/02/13 01:50:20;;;;;;;;;;;;;;;21.17;29.98;96814.50;4987999;28;968;-78
2024/02/13 01:52:46;;;;;;;;;;;;;;;21.22;29.66;96817.50;4987799;28;947;-78
2024/02/13 01:55:16;;;;;;;;;;;;;;;21.31;29.52;96811.88;5003536;28;935;-78
2024/02/13 01:57:41;;;;;;;;;;;;;;;21.56;29.41;96818.47;4989029;28;878;-78
2024/02/13 02:00:13;;;;;;;;;;;;;;;21.65;29.16;96832.59;4970834;28;1973;-78
2024/02/13 02:02:42;;;;;;;;;;;;;;;21.82;29.05;96822.50;5004824;28;921;-78
2024/02/13 02:05:10;;;;;;;;;;;;;;;21.43;29.52;96826.31;5003271;28;859;-78
2024/02/13 02:07:40;;;;;;;;;;;;;;;21.44;29.37;96833.56;4988019;28;948;-78
2024/02/13 02:10:07;;;;;;;;;;;;;;;21.55;29.13;96833.84;4971124;28;1128;-78
2024/02/13 02:12:34;;;;;;;;;;;;;;;21.40;29.30;96838.56;4988517;28;1096;-78
2024/02/13 02:15:00;;;;;;;;;;;;;;;21.47;29.12;96843.94;5004100;28;907;-79
2024/02/13 02:17:25;;;;;;;;;;;;;;;21.63;29.16;96835.13;4967590;28;1129;-78
2024/02/13 02:19:51;;;;;;;;;;;;;;;21.71;29.30;96839.22;4924569;29;1979;-78
2024/02/13 02:22:17;;;;;;;;;;;;;;;21.73;29.36;96845.19;4926055;29;1016;-78
2024/02/13 02:24:42;;;;;;;;;;;;;;;21.89;28.96;96840.44;4924140;29;1040;-78
2024/02/13 02:27:08;;;;;;;;;;;;;;;21.19;29.82;96846.75;4926733;29;1016;-78
2024/02/13 02:29:34;;;;;;;;;;;;;;;20.90;30.33;96849.19;4924669;29;2113;-78
2024/02/13 02:31:59;;;;;;;;;;;;;;;21.45;29.54;96846.44;4926362;29;923;-78
2024/02/13 02:34:25;;;;;;;;;;;;;;;21.36;29.86;96849.28;4925171;29;1157;-78
2024/02/13 02:36:52;;;;;;;;;;;;;;;21.42;29.72;96850.22;4926221;29;939;-78
2024/02/13 02:39:18;;;;;;;;;;;;;;;21.58;29.42;96849.91;4924424;29;1976;-78
2024/02/13 02:41:43;;;;;;;;;;;;;;;21.67;29.52;96840.63;4926178;29;1069;-78
2024/02/13 02:44:09;;;;;;;;;;;;;;;21.84;29.06;96856.78;4908697;29;991;-78
2024/02/13 02:46:35;;;;;;;;;;;;;;;21.65;29.30;96862.94;4926376;29;1355;-78
2024/02/13 02:49:01;;;;;;;;;;;;;;;21.30;29.64;96868.94;4922831;29;957;-77
2024/02/13 02:51:26;;;;;;;;;;;;;;;21.20;29.65;96864.50;4973634;28;969;-78
2024/02/13 02:53:52;;;;;;;;;;;;;;;21.39;29.63;96871.75;4965152;28;1068;-78
2024/02/13 02:56:18;;;;;;;;;;;;;;;21.47;29.67;96866.59;4952084;28;908;-78
2024/02/13 02:58:43;;;;;;;;;;;;;;;21.73;29.42;96870.66;4965564;28;1898;-77
2024/02/13 03:01:09;;;;;;;;;;;;;;;21.70;29.21;96868.75;4926222;29;1269;-78
2024/02/13 03:03:35;;;;;;;;;;;;;;;21.77;29.14;96871.28;4908003;29;1025;-78
2024/02/13 03:06:01;;;;;;;;;;;;;;;21.46;29.61;96873.50;4911008;29;906;-78
2024/02/13 03:08:27;;;;;;;;;;;;;;;21.51;29.39;96867.22;4908487;29;983;-77
2024/02/13 03:10:53;;;;;;;;;;;;;;;21.53;29.27;96864.69;4910822;29;1001;-78
2024/02/13 03:13:19;;;;;;;;;;;;;;;21.66;29.24;96856.03;4952887;28;1039;-77
2024/02/13 03:15:44;;;;;;;;;;;;;;;21.68;29.12;96865.63;4947780;29;1056;-78
2024/02/13 03:18:10;;;;;;;;;;;;;;;21.62;29.27;96861.88;4946650;28;1887;-79
2024/02/13 03:20:36;;;;;;;;;;;;;;;21.56;29.29;96861.72;4950685;29;1031;-78
2024/02/13 03:23:01;;;;;;;;;;;;;;;21.60;29.38;96864.34;4934670;28;1142;-78
2024/02/13 03:25:27;;;;;;;;;;;;;;;21.47;29.40;96866.59;4967235;28;1059;-78
2024/02/13 03:27:53;;;;;;;;;;;;;;;21.39;29.68;96870.97;4950066;29;1059;-78
2024/02/13 03:30:19;;;;;;;;;;;;;;;21.43;29.96;96871.59;4950428;29;1029;-78
2024/02/13 03:32:45;;;;;;;;;;;;;;;21.72;29.30;96885.28;4992288;28;971;-78
2024/02/13 03:35:10;;;;;;;;;;;;;;;21.64;29.39;96887.63;4988757;28;951;-78
2024/02/13 03:37:36;;;;;;;;;;;;;;;21.62;29.22;96875.22;4990115;28;1231;-79
2024/02/13 03:40:06;;;;;;;;;;;;;;;21.65;29.44;96868.59;4989319;28;1915;-78
2024/02/13 03:42:32;;;;;;;;;;;;;;;21.68;28.98;96870.50;5007117;28;946;-79
2024/02/13 03:44:57;;;;;;;;;;;;;;;21.40;29.70;96878.19;4972449;28;1030;-78
2024/02/13 03:47:23;;;;;;;;;;;;;;;21.53;29.38;96873.97;5007799;28;942;-78
2024/02/13 03:49:48;;;;;;;;;;;;;;;21.22;30.07;96878.94;4989209;28;1183;-77
2024/02/13 03:52:14;;;;;;;;;;;;;;;21.38;29.83;96880.72;4990590;28;946;-78
2024/02/13 03:54:40;;;;;;;;;;;;;;;21.60;29.32;96884.19;4949169;29;1307;-77
2024/02/13 03:57:06;;;;;;;;;;;;;;;21.56;29.68;96887.19;4950965;29;978;-78
2024/02/13 03:59:32;;;;;;;;;;;;;;;21.63;29.52;96891.72;4965165;29;1964;-78
2024/02/13 04:01:58;;;;;;;;;;;;;;;21.33;29.89;96882.91;4966932;29;942;-77
2024/02/13 04:04:23;;;;;;;;;;;;;;;21.50;29.44;96882.59;4965103;29;1056;-77
2024/02/13 04:06:49;;;;;;;;;;;;;;;21.10;30.13;96889.16;4966721;29;889;-78
2024/02/13 04:09:15;;;;;;;;;;;;;;;21.10;30.08;96894.03;4965287;29;1048;-78
2024/02/13 04:11:43;;;;;;;;;;;;;;;21.49;29.85;96898.00;4966428;29;935;-78
2024/02/13 04:14:11;;;;;;;;;;;;;;;21.76;29.45;96898.03;4964503;29;1000;-78
2024/02/13 04:16:41;;;;;;;;;;;;;;;21.36;29.86;96900.22;4950013;29;971;-78
2024/02/13 04:19:07;;;;;;;;;;;;;;;21.55;29.51;96890.47;4964396;29;1983;-78
2024/02/13 04:21:33;;;;;;;;;;;;;;;21.29;29.88;96885.06;4950539;29;1069;-78
2024/02/13 04:23:59;;;;;;;;;;;;;;;21.55;29.23;96891.28;4948998;29;973;-78
2024/02/13 04:26:24;;;;;;;;;;;;;;;21.69;29.12;96889.84;5003474;28;1096;-78
2024/02/13 04:28:50;;;;;;;;;;;;;;;21.82;29.05;96896.13;5012354;28;1349;-78
2024/02/13 04:31:16;;;;;;;;;;;;;;;21.88;29.30;96895.50;4983270;28;1246;-77
2024/02/13 04:33:41;;;;;;;;;;;;;;;21.67;29.49;96892.38;4965983;28;1240;-77
2024/02/13 04:36:07;;;;;;;;;;;;;;;21.55;29.21;96890.47;4953467;28;1440;-78
2024/02/13 04:38:33;;;;;;;;;;;;;;;21.57;29.05;96888.75;4943442;29;1958;-78
2024/02/13 04:40:58;;;;;;;;;;;;;;;21.62;29.33;96890.16;4944437;29;1720;-78
2024/02/13 04:43:24;;;;;;;;;;;;;;;21.71;29.35;96904.31;4954504;28;2238;-77
2024/02/13 04:45:50;;;;;;;;;;;;;;;21.68;29.42;96902.44;4962107;28;1753;-78
2024/02/13 04:48:16;;;;;;;;;;;;;;;21.88;28.93;96907.63;4960648;28;1487;-77
2024/02/13 04:50:41;;;;;;;;;;;;;;;21.93;28.67;96898.47;4946176;29;1074;-77
2024/02/13 04:53:07;;;;;;;;;;;;;;;21.85;29.23;96909.34;4944625;29;979;-78
2024/02/13 04:55:34;;;;;;;;;;;;;;;21.52;29.29;96902.75;4945259;29;1124;-78
2024/02/13 04:58:01;;;;;;;;;;;;;;;21.55;29.51;96907.44;4960230;28;1910;-77
2024/02/13 05:00:29;;;;;;;;;;;;;;;21.46;29.43;96911.06;4973454;28;1472;-78
2024/02/13 05:03:16;;;;;;;;;;;;;;;21.44;29.74;96918.44;4949188;28;1558;-78
2024/02/13 05:08:29;;;;;;;;;;;;;;;21.61;29.69;96931.06;4983016;28;950;-78
2024/02/13 05:10:56;;;;;;;;;;;;;;;21.73;29.29;96924.44;5005993;28;914;-77
2024/02/13 05:13:22;;;;;;;;;;;;;;;21.51;29.66;96940.81;5002408;28;953;-77
2024/02/13 05:15:47;;;;;;;;;;;;;;;21.56;29.53;96938.13;5006391;28;905;-78
2024/02/13 05:18:13;;;;;;;;;;;;;;;21.57;29.57;96938.91;5003410;28;1979;-78
2024/02/13 05:20:39;;;;;;;;;;;;;;;21.32;29.96;96949.25;5019703;28;1523;-78
2024/02/13 05:23:06;;;;;;;;;;;;;;;21.46;29.71;96947.09;5011965;28;960;-78
2024/02/13 05:25:32;;;;;;;;;;;;;;;21.42;29.80;96944.41;5004013;28;893;-78
2024/02/13 05:27:59;;;;;;;;;;;;;;;21.64;29.57;96955.59;5004720;28;1026;-77
2024/02/13 05:30:25;;;;;;;;;;;;;;;21.84;29.15;96958.75;5004993;28;909;-78
2024/02/13 05:32:51;;;;;;;;;;;;;;;21.84;29.31;96955.13;5004664;28;1017;-77
2024/02/13 05:35:17;;;;;;;;;;;;;;;21.51;29.66;96966.28;4986876;28;895;-77
2024/02/13 05:37:42;;;;;;;;;;;;;;;21.45;29.74;96973.78;4983498;28;914;-78
2024/02/13 05:40:10;;;;;;;;;;;;;;;21.47;29.61;96974.13;4994543;28;1910;-78
2024/02/13 05:42:35;;;;;;;;;;;;;;;21.48;29.62;96987.78;4969890;28;1233;-78
2024/02/13 05:45:01;;;;;;;;;;;;;;;21.63;29.66;96987.19;4985663;28;969;-77
2024/02/13 05:47:33;;;;;;;;;;;;;;;21.87;29.32;96995.88;5002685;28;929;-79
2024/02/13 05:49:59;;;;;;;;;;;;;;;21.83;29.35;96991.16;5000863;28;1074;-79
2024/02/13 05:52:24;;;;;;;;;;;;;;;21.86;29.41;96983.75;5002212;28;883;-79
2024/02/13 05:54:50;;;;;;;;;;;;;;;21.63;29.59;96998.53;4984802;28;1010;-79
2024/02/13 05:57:15;;;;;;;;;;;;;;;21.40;29.80;96999.88;4985290;28;1351;-81
2024/02/13 05:59:41;;;;;;;;;;;;;;;21.35;29.54;97000.50;4984591;28;1984;-79
2024/02/13 06:02:06;;;;;;;;;;;;;;;21.32;29.82;97003.00;4969987;28;978;-79
2024/02/13 06:04:32;;;;;;;;;;;;;;;21.44;29.91;97004.13;4942643;29;1252;-79
2024/02/13 06:06:57;;;;;;;;;;;;;;;21.43;30.02;97007.44;4912483;29;971;-79
2024/02/13 06:09:24;;;;;;;;;;;;;;;21.31;29.87;97001.44;4958556;29;963;-79
2024/02/13 06:11:50;;;;;;;;;;;;;;;21.17;30.31;97002.00;4963326;29;850;-79
2024/02/13 06:14:16;;;;;;;;;;;;;;;21.60;29.91;97008.72;4951645;29;963;-80
2024/02/13 06:16:41;;;;;;;;;;;;;;;21.53;29.92;97012.66;4948252;29;940;-80
2024/02/13 06:19:09;;;;;;;;;;;;;;;21.69;29.58;97010.78;4945785;29;1911;-79
2024/02/13 06:21:35;;;;;;;;;;;;;;;21.64;29.51;97012.19;4916065;29;1522;-79
2024/02/13 06:24:01;;;;;;;;;;;;;;;21.39;29.81;97018.13;4961589;28;1023;-79
2024/02/13 06:26:26;;;;;;;;;;;;;;;21.75;29.43;97018.19;4947317;29;1030;-79
2024/02/13 06:28:53;;;;;;;;;;;;;;;21.42;29.62;97005.88;4961977;28;1277;-79
2024/02/13 06:31:19;;;;;;;;;;;;;;;21.41;30.16;97018.44;4963916;28;883;-80
2024/02/13 06:33:44;;;;;;;;;;;;;;;21.55;29.71;97020.66;4945564;29;971;-79
2024/02/13 06:36:10;;;;;;;;;;;;;;;21.41;30.11;97013.56;4990374;28;940;-79
2024/02/13 06:38:36;;;;;;;;;;;;;;;21.46;29.71;97012.19;5000859;28;1980;-80
2024/02/13 06:41:05;;;;;;;;;;;;;;;21.36;29.96;97024.72;4970863;28;1009;-79
2024/02/13 06:43:34;;;;;;;;;;;;;;;21.36;29.72;97024.72;5000464;28;1004;-79
2024/02/13 06:46:00;;;;;;;;;;;;;;;21.43;29.83;97021.59;5003776;28;918;-80
2024/02/13 06:48:26;;;;;;;;;;;;;;;21.67;29.56;97021.81;4999666;28;1233;-80
2024/02/13 06:50:51;;;;;;;;;;;;;;;21.76;29.40;97014.13;5022898;28;954;-79
2024/02/13 06:53:17;;;;;;;;;;;;;;;21.74;29.58;97022.28;5020274;28;850;-79
2024/02/13 06:55:42;;;;;;;;;;;;;;;21.76;29.42;97016.97;5024882;28;886;-79
2024/02/13 06:58:08;;;;;;;;;;;;;;;21.62;29.67;97014.72;5006022;28;1977;-80
2024/02/13 07:00:34;;;;;;;;;;;;;;;21.40;29.93;97003.53;4991036;28;969;-79
2024/02/13 07:02:59;;;;;;;;;;;;;;;21.49;30.05;97005.56;4989078;28;940;-79
2024/02/13 07:05:26;;;;;;;;;;;;;;;21.59;29.95;97010.00;5022480;28;882;-79
2024/02/13 07:07:51;;;;;;;;;;;;;;;21.61;29.65;97013.16;5009259;28;1219;-79
2024/02/13 07:10:17;;;;;;;;;;;;;;;21.44;30.17;97014.66;5025594;28;853;-79
2024/02/13 07:12:43;;;;;;;;;;;;;;;21.58;30.00;97014.06;5010194;28;849;-79
2024/02/13 07:15:09;;;;;;;;;;;;;;;21.45;29.86;97010.56;5009006;28;1356;-79
2024/02/13 07:17:34;;;;;;;;;;;;;;;21.41;29.93;97019.22;4985385;28;951;-80
2024/02/13 07:20:00;;;;;;;;;;;;;;;21.43;29.96;97007.44;4968819;28;1986;-80
2024/02/13 07:22:26;;;;;;;;;;;;;;;21.54;29.71;97002.13;4969043;28;915;-79
2024/02/13 07:24:52;;;;;;;;;;;;;;;21.24;30.10;96996.06;4952953;28;1208;-80
2024/02/13 07:27:17;;;;;;;;;;;;;;;21.32;30.14;97003.00;4970265;28;912;-80
2024/02/13 07:29:44;;;;;;;;;;;;;;;21.58;29.82;97002.75;4984739;28;1148;-79
2024/02/13 07:32:10;;;;;;;;;;;;;;;21.54;29.88;96997.25;4971163;28;939;-80
2024/02/13 07:34:38;;;;;;;;;;;;;;;21.83;29.50;96991.16;4953022;28;955;-79
2024/02/13 07:37:07;;;;;;;;;;;;;;;21.58;29.96;96999.94;4970286;28;991;-79
2024/02/13 07:39:33;;;;;;;;;;;;;;;21.74;29.63;97005.28;4930503;29;1903;-80
2024/02/13 07:41:59;;;;;;;;;;;;;;;21.65;29.40;97002.44;4932539;29;1446;-80
2024/02/13 07:44:29;;;;;;;;;;;;;;;21.57;29.64;96998.34;4925193;29;1539;-80
2024/02/13 07:46:56;;;;;;;;;;;;;;;21.51;29.76;97003.84;4929683;29;896;-80
2024/02/13 07:49:22;;;;;;;;;;;;;;;21.52;29.78;96999.75;4960014;28;1620;-80
2024/02/13 07:51:48;;;;;;;;;;;;;;;21.50;29.60;96998.63;4967104;28;954;-80
2024/02/13 07:54:14;;;;;;;;;;;;;;;21.68;29.49;96995.84;4966609;28;914;-80
2024/02/13 07:56:41;;;;;;;;;;;;;;;21.39;30.09;96998.31;4984248;28;943;-79
2024/02/13 07:59:06;;;;;;;;;;;;;;;21.52;29.91;97013.13;4969366;28;1903;-80
2024/02/13 08:01:33;;;;;;;;;;;;;;;21.73;29.31;97003.72;4970186;28;1675;-80
2024/02/13 08:04:00;;;;;;;;;;;;;;;21.34;29.76;97011.03;4984881;28;882;-80
2024/02/13 08:06:26;;;;;;;;;;;;;;;21.08;30.49;97016.09;4985457;28;949;-80
2024/02/13 08:08:51;;;;;;;;;;;;;;;21.19;30.28;97013.66;4968398;28;954;-79
2024/02/13 08:11:17;;;;;;;;;;;;;;;21.50;29.84;97012.78;4999425;28;955;-80
2024/02/13 08:13:43;;;;;;;;;;;;;;;21.67;29.64;97011.28;5006672;28;939;-80
2024/02/13 08:16:09;;;;;;;;;;;;;;;21.99;29.05;97009.09;4991779;28;1069;-80
2024/02/13 08:18:37;;;;;;;;;;;;;;;21.76;29.07;96999.97;4969686;28;1973;-80
2024/02/13 08:21:03;;;;;;;;;;;;;;;21.59;29.32;97010.00;4987358;28;963;-79
2024/02/13 08:23:29;;;;;;;;;;;;;;;21.35;29.67;97011.81;4967927;28;918;-80
2024/02/13 08:25:55;;;;;;;;;;;;;;;21.66;29.70;97014.56;4970708;28;973;-80
2024/02/13 08:28:20;;;;;;;;;;;;;;;21.82;29.27;97009.41;4968472;28;1211;-79
2024/02/13 08:30:49;;;;;;;;;;;;;;;21.83;29.10;97019.47;5002398;28;1333;-80
2024/02/13 08:33:15;;;;;;;;;;;;;;;21.95;29.20;97014.13;4971863;28;1309;-80
2024/02/13 08:35:42;;;;;;;;;;;;;;;21.69;29.14;97014.41;4989879;28;968;-80
2024/02/13 08:38:08;;;;;;;;;;;;;;;21.56;29.38;97022.25;4971439;28;1984;-79
2024/02/13 08:40:33;;;;;;;;;;;;;;;21.37;29.63;97014.97;4985369;28;1462;-79
2024/02/13 08:42:59;;;;;;;;;;;;;;;21.36;29.78;97014.19;4984416;28;981;-80
2024/02/13 08:45:24;;;;;;;;;;;;;;;21.43;30.05;97018.75;4989052;28;2025;-80
2024/02/13 08:47:50;;;;;;;;;;;;;;;21.52;29.71;97015.97;4949179;29;1720;-80
2024/02/13 08:50:17;;;;;;;;;;;;;;;21.73;29.55;97029.22;4980470;28;1058;-79
2024/02/13 08:52:42;;;;;;;;;;;;;;;21.38;29.61;97028.66;5004429;28;1142;-80
2024/02/13 08:55:08;;;;;;;;;;;;;;;21.59;29.14;97038.28;4987735;28;939;-80
2024/02/13 08:57:35;;;;;;;;;;;;;;;21.48;29.23;97038.75;5004314;28;1489;-80
2024/02/13 09:00:01;;;;;;;;;;;;;;;21.40;29.59;97042.31;4987060;28;1895;-80
2024/02/13 09:02:27;;;;;;;;;;;;;;;21.79;29.31;97046.34;4973175;28;1080;-80
2024/02/13 09:04:52;;;;;;;;;;;;;;;21.54;29.58;97044.56;5001621;28;1465;-80
2024/02/13 09:07:18;;;;;;;;;;;;;;;21.76;29.43;97048.09;4985727;28;1039;-80
2024/02/13 09:09:43;;;;;;;;;;;;;;;21.39;29.68;97038.72;4968284;28;961;-80
2024/02/13 09:12:11;;;;;;;;;;;;;;;21.27;29.70;97051.69;4969651;28;1159;-80
2024/02/13 09:14:37;;;;;;;;;;;;;;;21.63;29.05;97038.94;4967199;28;997;-80
2024/02/13 09:17:03;;;;;;;;;;;;;;;21.49;29.73;97033.88;4969209;28;959;-80
2024/02/13 09:19:29;;;;;;;;;;;;;;;21.53;29.67;97046.63;4967572;28;1887;-80
2024/02/13 09:21:56;;;;;;;;;;;;;;;21.75;29.38;97034.41;4953085;28;1194;-80
2024/02/13 09:24:24;;;;;;;;;;;;;;;21.54;29.36;97041.75;4968048;28;907;-80
2024/02/13 09:26:51;;;;;;;;;;;;;;;21.43;29.41;97032.91;4985580;28;884;-80
2024/02/13 09:29:17;;;;;;;;;;;;;;;21.81;28.64;97036.16;4986790;28;1789;-79
2024/02/13 09:31:43;;;;;;;;;;;;;;;21.71;29.23;97045.06;4987804;28;976;-80
2024/02/13 09:34:08;;;;;;;;;;;;;;;21.82;29.32;97037.72;4986766;28;954;-80
2024/02/13 09:36:37;;;;;;;;;;;;;;;21.88;29.09;97032.22;5005213;28;951;-80
2024/02/13 09:39:03;;;;;;;;;;;;;;;21.76;29.34;97042.44;4970721;28;1973;-80
2024/02/13 09:41:29;;;;;;;;;;;;;;;21.74;29.29;97050.59;4987120;28;1569;-80
2024/02/13 09:43:55;;;;;;;;;;;;;;;21.43;29.32;97041.41;5004781;28;908;-80
2024/02/13 09:46:22;;;;;;;;;;;;;;;21.57;28.87;97040.81;5005894;28;853;-80
2024/02/13 09:48:48;;;;;;;;;;;;;;;21.44;29.37;97042.97;5004234;28;946;-80
2024/02/13 09:51:17;;;;;;;;;;;;;;;21.43;29.71;97038.56;5005990;28;890;-80
2024/02/13 09:53:42;;;;;;;;;;;;;;;21.66;29.62;97032.34;4983223;28;906;-80
2024/02/13 09:56:11;;;;;;;;;;;;;;;21.72;29.31;97033.31;4996339;28;1628;-80
2024/02/13 09:58:37;;;;;;;;;;;;;;;21.71;29.36;97028.09;5001970;28;1902;-80
2024/02/13 10:01:05;;;;;;;;;;;;;;;21.70;29.32;97029.34;5005199;28;1089;-80
2024/02/13 10:03:30;;;;;;;;;;;;;;;21.53;29.21;97031.69;4968632;28;1454;-80
2024/02/13 10:05:56;;;;;;;;;;;;;;;21.31;29.44;97029.75;4971790;28;1668;-80
2024/02/13 10:08:27;;;;;;;;;;;;;;;21.42;29.90;97022.84;4985545;28;975;-80
2024/02/13 10:11:02;;;;;;;;;;;;;;;21.62;29.63;97014.72;4988438;28;1199;-80
2024/02/13 10:13:31;;;;;;;;;;;;;;;21.66;29.13;97015.38;4969681;28;958;-80
2024/02/13 10:15:57;;;;;;;;;;;;;;;21.55;29.31;97015.00;4952841;28;1619;-80
2024/02/13 10:18:24;;;;;;;;;;;;;;;21.63;28.93;97021.94;4950554;28;1887;-80
2024/02/13 10:20:50;;;;;;;;;;;;;;;21.46;29.52;97015.78;4953130;28;1177;-80
2024/02/13 10:23:18;;;;;;;;;;;;;;;21.68;29.08;97015.66;4966517;28;887;-80
2024/02/13 10:25:44;;;;;;;;;;;;;;;21.74;28.90;97007.34;5003173;28;982;-79
2024/02/13 10:28:11;;;;;;;;;;;;;;;21.91;28.60;97010.66;5004079;28;1049;-79
2024/02/13 10:30:45;;;;;;;;;;;;;;;21.79;28.64;97010.34;4999594;28;1381;-80
2024/02/13 10:33:23;;;;;;;;;;;;;;;21.50;28.84;97019.28;5003966;28;946;-80
2024/02/13 10:36:18;;;;;;;;;;;;;;;21.38;29.23;97011.66;5006695;28;1187;-80
2024/02/13 10:38:46;;;;;;;;;;;;;;;21.10;29.13;97013.59;5003547;28;1973;-79
2024/02/13 10:41:21;;;;;;;;;;;;;;;;;;;;;
2024/02/13 10:43:47;;;;;;;;;;;;;;;21.54;28.71;97007.78;5000772;28;1640;-80
2024/02/13 10:46:29;;;;;;;;;;;;;;;21.53;29.11;97006.22;4987920;28;1466;-80
2024/02/13 10:49:10;;;;;;;;;;;;;;;21.84;28.30;97004.03;4963250;28;1417;-81
2024/02/13 10:51:37;;;;;;;;;;;;;;;21.88;28.42;96997.44;4965353;28;912;-80
2024/02/13 10:54:06;;;;;;;;;;;;;;;21.55;28.80;97010.16;4947744;28;1258;-80
2024/02/13 10:56:39;;;;;;;;;;;;;;;21.33;29.04;97003.78;4963968;28;1000;-80
2024/02/13 10:59:15;;;;;;;;;;;;;;;21.61;28.67;97001.84;4963631;28;1902;-80
2024/02/13 11:01:51;;;;;;;;;;;;;;;21.59;29.17;97004.31;4967511;28;1218;-80
2024/02/13 11:04:17;;;;;;;;;;;;;;;21.81;28.91;96996.50;4950964;28;1324;-80
2024/02/13 11:06:42;;;;;;;;;;;;;;;21.62;29.22;97005.44;4952270;28;915;-80
2024/02/13 11:09:12;;;;;;;;;;;;;;;21.74;28.97;96993.97;4966427;28;1498;-80
2024/02/13 11:11:46;;;;;;;;;;;;;;;21.77;28.87;96993.03;4962908;28;1093;-80
2024/02/13 11:14:18;;;;;;;;;;;;;;;21.35;29.35;96997.66;4947441;29;983;-80
2024/02/13 11:16:51;;;;;;;;;;;;;;;21.44;28.85;96992.03;4964577;28;1383;-80
2024/02/13 11:19:18;;;;;;;;;;;;;;;21.31;29.08;96995.00;4952820;28;1984;-80
2024/02/13 11:21:45;;;;;;;;;;;;;;;21.20;29.25;97001.06;4983510;28;935;-80
2024/02/13 11:24:18;;;;;;;;;;;;;;;21.57;29.08;96990.66;4982885;28;969;-80
2024/02/13 11:26:44;;;;;;;;;;;;;;;21.78;28.67;96974.00;4969610;28;967;-80
2024/02/13 11:29:10;;;;;;;;;;;;;;;21.53;28.87;96989.22;4924552;29;1153;-80
2024/02/13 11:31:37;;;;;;;;;;;;;;;21.08;29.72;96982.16;4911867;29;1382;-80
2024/02/13 11:34:03;;;;;;;;;;;;;;;21.52;28.80;96988.44;4949084;28;978;-80
2024/02/13 11:36:30;;;;;;;;;;;;;;;21.55;28.54;96981.03;4968254;28;889;-80
2024/02/13 11:38:57;;;;;;;;;;;;;;;21.70;28.88;96981.22;4962805;28;1902;-80
2024/02/13 11:41:23;;;;;;;;;;;;;;;21.71;28.71;96980.78;4952463;28;1070;-80
2024/02/13 11:43:48;;;;;;;;;;;;;;;21.71;28.79;96980.78;4950270;28;1032;-80
2024/02/13 11:46:14;;;;;;;;;;;;;;;21.70;28.40;96984.84;4968254;28;1466;-80
2024/02/13 11:48:42;;;;;;;;;;;;;;;21.37;28.96;96993.13;4931330;29;1043;-80
2024/02/13 11:51:07;;;;;;;;;;;;;;;21.19;29.10;96979.69;4895965;29;1561;-80
2024/02/13 11:53:33;;;;;;;;;;;;;;;21.26;29.30;96987.88;4908414;29;911;-80
2024/02/13 11:55:59;;;;;;;;;;;;;;;21.48;28.97;96975.69;4911158;29;1203;-80
2024/02/13 11:58:26;;;;;;;;;;;;;;;21.74;28.40;96976.19;4893049;29;1968;-80
2024/02/13 12:01:00;;;;;;;;;;;;;;;21.77;28.24;96970.38;4942008;29;1593;-79
2024/02/13 12:03:26;;;;;;;;;;;;;;;21.29;28.78;96974.81;4931030;29;1144;-80
2024/02/13 12:05:52;;;;;;;;;;;;;;;21.37;28.51;96981.81;4933706;29;938;-80
2024/02/13 12:08:19;;;;;;;;;;;;;;;21.36;28.94;96968.13;4948871;29;1351;-81
2024/02/13 12:10:45;;;;;;;;;;;;;;;21.51;28.80;96969.09;4985462;28;997;-80
2024/02/13 12:13:11;;;;;;;;;;;;;;;21.67;28.68;96971.63;4953096;28;914;-80
2024/02/13 12:15:37;;;;;;;;;;;;;;;21.75;28.41;96975.72;4954804;28;1243;-79
2024/02/13 12:18:03;;;;;;;;;;;;;;;21.53;28.74;96978.69;4922139;28;1337;-80
2024/02/13 12:20:29;;;;;;;;;;;;;;;21.26;28.89;96976.56;4938599;28;1988;-80
2024/02/13 12:22:56;;;;;;;;;;;;;;;21.37;28.28;96975.34;4999521;28;1296;-80
2024/02/13 12:25:21;;;;;;;;;;;;;;;21.37;28.80;96975.34;4990360;28;914;-78
2024/02/13 12:27:48;;;;;;;;;;;;;;;21.58;28.54;96975.22;5006187;28;1109;-80
2024/02/13 12:30:14;;;;;;;;;;;;;;;21.65;28.30;96974.13;4990521;28;1091;-80
2024/02/13 12:32:40;;;;;;;;;;;;;;;21.76;28.23;96980.16;5006015;28;1029;-80
2024/02/13 12:35:21;;;;;;;;;;;;;;;21.17;28.86;96985.00;4988949;28;975;-80
2024/02/13 12:37:51;;;;;;;;;;;;;;;21.46;28.03;96981.03;5006061;28;1591;-80
2024/02/13 12:40:17;;;;;;;;;;;;;;;21.58;27.71;96980.13;4972841;28;1903;-79
2024/02/13 12:42:43;;;;;;;;;;;;;;;21.43;28.26;96979.94;4989105;28;913;-80
2024/02/13 12:45:09;;;;;;;;;;;;;;;21.52;28.22;96990.47;4988051;28;995;-80
2024/02/13 12:47:35;;;;;;;;;;;;;;;21.53;28.14;96989.22;5005920;28;956;-80
2024/02/13 12:50:03;;;;;;;;;;;;;;;21.79;27.98;96978.41;4988631;28;928;-80
2024/02/13 12:52:29;;;;;;;;;;;;;;;21.53;28.13;96972.25;5003643;28;1338;-80
2024/02/13 12:54:58;;;;;;;;;;;;;;;21.15;28.73;96981.88;5004573;28;994;-80
2024/02/13 12:57:26;;;;;;;;;;;;;;;21.37;28.02;96978.19;4973882;28;1063;-80
2024/02/13 12:59:52;;;;;;;;;;;;;;;21.33;28.28;96981.94;4988366;28;1954;-80
2024/02/13 13:02:25;;;;;;;;;;;;;;;21.39;28.83;96981.31;4990312;28;1013;-80